»·PEaware :: N3096B KIFP-KGCN

N3096B :: KIFP-KGCN

FLIGHT INFORMATION

Flight Status: Arrived
Operator: Privately registered:
United States
More flights under this callsign
Pilot: Jason S. (9221)
Aircraft: Unknown
(VIPJ)
More flights by this aircraft type
Origin: KIFP Laughlin/Bullhead Intl
United States
Destination: KGCN Grand Canyon Natl Park
United States
More flights between these airports :: More routes between these airports
Route: EED IGM PGS GCN
File this flight plan on PilotEdge
Remarks:
Altitude:
(Current/Filed)
11,000ft
Speed:
(Current/Filed)
200kts
Departed: 25-Aug-19 07:35 PM
Arrived: 25-Aug-19 08:14 PM
Distance/Time
Traveled:
127nm/0:39
Distance/Time
To Go:
Arrived

Flight Plot

Page will automatically refresh every two minutes.

Flight plan parsing failed; only flown route is shown


Map Options




Map Legend


Flown Route
Filed Route
Departure Airport
Arrival Airport
Navaid (VOR, NDB)
Fix

Horizontal Profiles

Position Reports

Time Latitude Longitude Heading Altitude Ground
Speed
25-Aug-19 19:17 35.156187 -114.556023 358 705ft 0kts
25-Aug-19 19:18 35.156187 -114.556023 358 705ft 0kts
25-Aug-19 19:19 35.156187 -114.556023 358 705ft 0kts
25-Aug-19 19:20 35.156187 -114.556023 358 705ft 0kts
25-Aug-19 19:21 35.156187 -114.556023 358 705ft 0kts
25-Aug-19 19:22 35.156187 -114.556023 358 705ft 0kts
25-Aug-19 19:23 35.156187 -114.556023 358 705ft 0kts
25-Aug-19 19:24 35.156187 -114.556023 358 705ft 0kts
25-Aug-19 19:25 35.156187 -114.556023 358 705ft 0kts
25-Aug-19 19:26 35.156187 -114.556023 358 705ft 0kts
25-Aug-19 19:27 35.156187 -114.556023 358 705ft 0kts
25-Aug-19 19:28 35.156187 -114.556023 358 705ft 0kts
25-Aug-19 19:29 35.156187 -114.556023 358 705ft 0kts
25-Aug-19 19:30 35.159219 -114.556606 354 705ft 20kts
25-Aug-19 19:31 35.166235 -114.559168 269 705ft 0kts
25-Aug-19 19:32 35.166235 -114.559175 270 705ft 0kts
25-Aug-19 19:33 35.165792 -114.560145 191 705ft 24kts
25-Aug-19 19:34 35.134197 -114.573929 208 3090ft 148kts
25-Aug-19 19:35 35.093599 -114.548635 161 4833ft 199kts
25-Aug-19 19:36 35.033309 -114.532526 171 5989ft 242kts
25-Aug-19 19:37 34.963377 -114.517199 172 6989ft 269kts
25-Aug-19 19:38 34.883391 -114.499878 167 7200ft 304kts
25-Aug-19 19:39 34.801362 -114.481698 165 8180ft 298kts
25-Aug-19 19:40 34.785941 -114.404655 39 9068ft 289kts
25-Aug-19 19:41 34.860155 -114.371368 39 10053ft 287kts
25-Aug-19 19:42 34.919813 -114.307058 40 11010ft 286kts
25-Aug-19 19:43 34.980094 -114.241420 39 11013ft 294kts
25-Aug-19 19:44 35.041848 -114.174018 39 11056ft 302kts
25-Aug-19 19:45 35.105121 -114.104762 39 11164ft 306kts
25-Aug-19 19:46 35.168796 -114.034941 39 10974ft 318kts
25-Aug-19 19:47 35.235182 -113.961967 39 10779ft 318kts
25-Aug-19 19:48 35.301018 -113.890989 38 10780ft 315kts
25-Aug-19 19:49 35.366826 -113.820851 38 10780ft 314kts
25-Aug-19 19:50 35.432600 -113.750591 38 10781ft 313kts
25-Aug-19 19:51 35.498390 -113.680156 38 10781ft 313kts
25-Aug-19 19:52 35.563799 -113.609970 38 10781ft 313kts
25-Aug-19 19:53 35.626295 -113.535871 65 10756ft 317kts
25-Aug-19 19:54 35.651743 -113.432154 72 10782ft 317kts
25-Aug-19 19:55 35.676428 -113.327450 77 10774ft 318kts
25-Aug-19 19:56 35.691384 -113.219707 81 10508ft 325kts
25-Aug-19 19:57 35.704982 -113.113277 81 9530ft 298kts
25-Aug-19 19:58 35.716622 -113.021420 80 9199ft 244kts
25-Aug-19 19:59 35.726308 -112.944624 80 9201ft 217kts
25-Aug-19 20:00 35.735432 -112.871852 80 9195ft 212kts
25-Aug-19 20:01 35.744342 -112.800420 80 9190ft 210kts
25-Aug-19 20:02 35.753118 -112.729712 80 9190ft 208kts
25-Aug-19 20:03 35.761789 -112.659517 80 9190ft 207kts
25-Aug-19 20:04 35.770369 -112.589716 80 9190ft 206kts
25-Aug-19 20:05 35.778884 -112.520101 81 9209ft 205kts
25-Aug-19 20:06 35.787375 -112.450335 81 9209ft 206kts
25-Aug-19 20:07 35.795847 -112.380383 81 9209ft 206kts
25-Aug-19 20:08 35.804426 -112.309199 82 9041ft 214kts
25-Aug-19 20:09 35.835060 -112.264400 8 9003ft 185kts
25-Aug-19 20:10 35.874990 -112.228381 39 8796ft 183kts
25-Aug-19 20:11 35.912829 -112.187539 39 7658ft 161kts
25-Aug-19 20:12 35.942909 -112.156926 39 6647ft 115kts
25-Aug-19 20:13 35.956456 -112.142602 40 6608ft 32kts

Navigation Log

Ident Type
Flight plan parsing failed, navigation log unavailable